Bruneau, Idaho
Current Conditions -  °F | °C
As of 3:58 PM on Tuesday 27 Jan 2015 (Local Time) from KMUO Reporting Station
Haze Haze  
Wind Chill: 36°   Ceiling: 300
Heat Index: 36°   Visibility: 4mi
Dew Point: 36°   Wind: 2mph
Humidity: 100%   Direction: 290°WNW
Pressure: 30.1"   Gusts: NA
Location:  42.88°N, 115.8°W
Report Text: KMUO 272258Z 29002KT 4SM BR OVC003 02/02 A3010 RMK AO2A SLP215 VIS LWR SW
Loading
Personal Weather Stations






























Interactive Weather Map New forecast layout! Learn more

10-Day Weather Forecast

Advertisements
Track Severe Weather on mobile